createdAt,value
2022-12-04T00:01:21.107Z,44.33
2022-12-04T00:03:47.718Z,45.80
2022-12-04T00:06:19.594Z,46.17
2022-12-04T00:08:47.733Z,38.07
2022-12-04T00:11:17.282Z,43.53
2022-12-04T00:13:44.261Z,45.33
2022-12-04T00:16:18.933Z,46.17
2022-12-04T00:18:45.553Z,41.63
2022-12-04T00:21:14.409Z,43.63
2022-12-04T00:23:41.614Z,46.07
2022-12-04T00:26:14.623Z,46.23
2022-12-04T00:28:42.245Z,47.87
2022-12-04T00:31:11.638Z,48.37
2022-12-04T00:33:38.651Z,50.47
2022-12-04T00:36:12.601Z,43.70
2022-12-04T00:38:40.255Z,48.03
2022-12-04T00:41:12.025Z,47.97
2022-12-04T00:43:38.944Z,43.70
2022-12-04T00:46:05.838Z,43.37
2022-12-04T00:48:32.466Z,41.00
2022-12-04T00:51:08.244Z,43.40
2022-12-04T00:53:34.954Z,42.00
2022-12-04T00:56:11.162Z,42.67
2022-12-04T00:58:37.884Z,44.90
2022-12-04T01:01:10.222Z,44.23
2022-12-04T01:03:37.171Z,44.40
2022-12-04T01:06:04.519Z,47.33
2022-12-04T01:08:31.884Z,45.37
2022-12-04T01:10:58.925Z,43.77
2022-12-04T01:13:26.564Z,41.27
2022-12-04T01:15:53.245Z,41.03
2022-12-04T01:18:19.792Z,44.73
2022-12-04T01:20:51.111Z,42.93
2022-12-04T01:23:18.659Z,42.67
2022-12-04T01:25:54.048Z,45.10
2022-12-04T01:28:20.950Z,42.33
2022-12-04T01:31:03.613Z,42.17
2022-12-04T01:33:30.786Z,38.83
2022-12-04T01:35:59.268Z,45.17
2022-12-04T01:38:26.502Z,38.53
2022-12-04T01:40:53.890Z,41.27
2022-12-04T01:43:21.181Z,40.33
2022-12-04T01:45:50.720Z,39.53
2022-12-04T01:48:20.316Z,42.87
2022-12-04T01:50:49.605Z,42.90
2022-12-04T01:53:16.725Z,42.57
2022-12-04T01:55:44.441Z,46.67
2022-12-04T01:58:11.381Z,41.13
2022-12-04T02:00:38.102Z,49.40
2022-12-04T02:03:04.936Z,41.37
2022-12-04T02:17:08.810Z,40.77
2022-12-04T02:19:47.618Z,39.10
2022-12-04T02:22:52.962Z,32.80
2022-12-04T02:25:25.099Z,35.73
2022-12-04T02:28:00.754Z,37.07
2022-12-04T02:30:29.205Z,30.47
2022-12-04T02:33:15.978Z,36.70
2022-12-04T02:36:20.772Z,35.07
2022-12-04T02:39:00.215Z,41.27
2022-12-04T02:41:35.085Z,37.67
2022-12-04T02:44:22.239Z,39.70
2022-12-04T02:46:54.893Z,38.00
2022-12-04T02:49:27.941Z,38.00
2022-12-04T02:51:58.440Z,38.20
2022-12-04T02:54:34.630Z,42.47
2022-12-04T02:57:04.855Z,43.57
2022-12-04T02:59:38.090Z,45.93
2022-12-04T03:02:10.806Z,42.13
2022-12-04T03:04:39.843Z,42.40
2022-12-04T03:07:17.733Z,39.67
2022-12-04T03:09:54.744Z,46.10
2022-12-04T03:12:38.079Z,39.57
2022-12-04T03:15:33.069Z,42.17
2022-12-04T03:18:16.706Z,42.57
2022-12-04T03:20:46.774Z,41.87
2022-12-04T03:23:18.618Z,41.10
2022-12-04T03:26:20.425Z,42.97
2022-12-04T03:29:00.297Z,40.73
2022-12-04T03:31:45.576Z,38.27
2022-12-04T03:34:15.841Z,42.13
2022-12-04T03:36:55.297Z,36.53
2022-12-04T03:39:30.771Z,39.40
2022-12-04T03:42:22.353Z,43.93
2022-12-04T03:44:54.263Z,36.43
2022-12-04T03:47:36.925Z,33.50
2022-12-04T03:50:08.694Z,33.80
2022-12-04T03:52:42.870Z,44.10
2022-12-04T03:55:31.083Z,35.67
2022-12-04T03:58:03.204Z,34.53
2022-12-04T04:00:32.742Z,32.77
2022-12-04T04:03:06.982Z,30.00
2022-12-04T04:05:36.986Z,36.10
2022-12-04T04:08:25.259Z,36.27
2022-12-04T04:10:55.471Z,37.17
2022-12-04T04:13:46.424Z,48.37
2022-12-04T04:16:35.421Z,35.00
2022-12-04T04:19:21.540Z,46.67
2022-12-04T04:22:09.576Z,41.30
2022-12-04T04:25:01.023Z,42.33
2022-12-04T04:27:27.582Z,51.47
2022-12-04T04:29:54.765Z,41.63
2022-12-04T04:32:24.413Z,46.63
2022-12-04T04:35:00.690Z,47.37
2022-12-04T04:37:57.833Z,46.60
2022-12-04T04:40:33.349Z,42.93
2022-12-04T04:43:20.928Z,38.83
2022-12-04T04:45:53.960Z,38.17
2022-12-04T04:48:32.724Z,38.87
2022-12-04T04:51:00.913Z,43.27
2022-12-04T04:53:33.529Z,42.73
2022-12-04T04:56:00.185Z,48.57
2022-12-04T04:58:26.732Z,47.73
2022-12-04T05:01:01.898Z,50.87
2022-12-04T05:03:29.825Z,48.83
2022-12-04T05:05:56.413Z,49.73
2022-12-04T05:08:23.568Z,45.13
2022-12-04T05:10:50.839Z,49.23
2022-12-04T05:13:18.447Z,50.63
2022-12-04T05:16:06.118Z,49.67
2022-12-04T05:18:34.618Z,45.57
2022-12-04T05:21:16.661Z,46.43
2022-12-04T05:23:43.731Z,50.90
2022-12-04T05:26:10.309Z,55.63
2022-12-04T05:28:36.937Z,47.10
2022-12-04T05:31:04.943Z,50.90
2022-12-04T05:33:31.522Z,46.73
2022-12-04T05:35:59.027Z,48.53
2022-12-04T05:38:25.715Z,48.40
2022-12-04T05:40:52.426Z,43.13
2022-12-04T05:43:19.147Z,53.40
2022-12-04T05:45:46.037Z,40.73
2022-12-04T05:48:13.860Z,53.17
2022-12-04T05:50:40.376Z,53.20
2022-12-04T05:53:06.993Z,48.07
2022-12-04T05:55:33.580Z,49.83
2022-12-04T05:58:00.703Z,60.50
2022-12-04T06:00:27.450Z,53.10
2022-12-04T06:02:54.020Z,43.77
2022-12-04T06:05:20.838Z,68.43
2022-12-04T06:07:47.454Z,73.67
2022-12-04T06:10:14.047Z,52.93
2022-12-04T06:12:40.609Z,93.87
2022-12-04T06:15:07.587Z,74.23
2022-12-04T06:17:34.158Z,66.87
2022-12-04T06:20:01.060Z,90.40
2022-12-04T06:22:28.022Z,132.03
2022-12-04T06:24:54.532Z,180.93
2022-12-04T06:27:28.820Z,89.23
2022-12-04T06:29:56.037Z,196.63
2022-12-04T06:32:22.875Z,90.10
2022-12-04T06:34:53.897Z,105.87
2022-12-04T06:37:25.142Z,141.17
2022-12-04T06:39:51.679Z,152.70
2022-12-04T06:42:18.413Z,158.70
2022-12-04T06:44:45.053Z,358.97
2022-12-04T06:47:11.621Z,116.47
2022-12-04T06:49:38.172Z,96.00
2022-12-04T06:52:04.754Z,95.83
2022-12-04T06:54:31.320Z,149.57
2022-12-04T06:56:57.855Z,239.23
2022-12-04T06:59:24.414Z,125.20
2022-12-04T07:01:51.060Z,188.00
2022-12-04T07:04:17.811Z,423.47
2022-12-04T07:06:44.341Z,380.67
2022-12-04T07:09:14.925Z,129.93
2022-12-04T07:11:43.000Z,431.50
2022-12-04T07:14:10.504Z,340.57
2022-12-04T07:16:41.051Z,574.00
2022-12-04T07:19:09.564Z,339.47
2022-12-04T07:21:36.109Z,290.70
2022-12-04T07:24:02.855Z,190.23
2022-12-04T07:26:30.616Z,91.00
2022-12-04T07:28:58.263Z,91.07
2022-12-04T07:31:27.981Z,71.27
2022-12-04T07:33:55.476Z,101.00
2022-12-04T07:36:23.534Z,96.00
2022-12-04T07:38:50.810Z,67.03
2022-12-04T07:41:18.177Z,103.17
2022-12-04T07:43:45.105Z,98.40
2022-12-04T07:46:31.975Z,155.37
2022-12-04T07:48:59.179Z,92.97
2022-12-04T07:51:28.427Z,144.00
2022-12-04T07:54:02.075Z,131.27
2022-12-04T07:56:30.018Z,99.13
2022-12-04T07:58:56.597Z,134.37
2022-12-04T08:01:24.045Z,191.70
2022-12-04T08:03:53.340Z,174.87
2022-12-04T08:06:22.910Z,157.43
2022-12-04T08:08:50.486Z,169.63
2022-12-04T08:11:22.187Z,224.67
2022-12-04T08:13:53.630Z,232.00
2022-12-04T08:16:20.237Z,183.37
2022-12-04T08:18:48.612Z,266.17
2022-12-04T08:21:22.565Z,222.17
2022-12-04T08:23:53.670Z,160.33
2022-12-04T08:26:22.397Z,149.07
2022-12-04T08:28:49.297Z,104.40
2022-12-04T08:31:19.109Z,79.23
2022-12-04T08:33:47.515Z,165.37
2022-12-04T08:36:16.761Z,264.07
2022-12-04T08:38:43.517Z,131.60
2022-12-04T08:41:13.343Z,200.97
2022-12-04T08:43:40.344Z,85.23
2022-12-04T08:46:10.208Z,122.53
2022-12-04T08:48:37.198Z,206.40
2022-12-04T08:51:04.760Z,211.20
2022-12-04T08:53:32.121Z,136.37
2022-12-04T08:56:01.496Z,313.83
2022-12-04T08:58:28.164Z,93.27
2022-12-04T09:00:54.678Z,148.40
2022-12-04T09:03:27.571Z,77.73
2022-12-04T09:06:00.482Z,97.47
2022-12-04T09:08:27.958Z,60.83
2022-12-04T09:10:54.614Z,62.23
2022-12-04T09:13:21.175Z,87.77
2022-12-04T09:15:47.783Z,78.03
2022-12-04T09:18:14.472Z,99.87
2022-12-04T09:20:41.033Z,59.20
2022-12-04T09:23:07.782Z,83.67
2022-12-04T09:25:37.876Z,84.87
2022-12-04T09:28:04.819Z,59.87
2022-12-04T09:30:31.657Z,118.77
2022-12-04T09:32:58.188Z,61.37
2022-12-04T09:35:24.734Z,65.70
2022-12-04T09:37:51.326Z,58.90
2022-12-04T09:40:39.582Z,55.43
2022-12-04T09:43:29.210Z,56.90
2022-12-04T09:46:02.347Z,52.67
2022-12-04T09:48:34.684Z,66.63
2022-12-04T09:51:03.250Z,62.87
2022-12-04T09:53:56.009Z,54.13
2022-12-04T09:56:25.629Z,48.60
2022-12-04T09:59:26.885Z,44.23
2022-12-04T10:02:30.855Z,50.43
2022-12-04T10:04:57.504Z,41.57
2022-12-04T10:07:36.884Z,43.00
2022-12-04T10:10:35.542Z,42.33
2022-12-04T10:13:44.205Z,45.90
2022-12-04T10:16:28.373Z,42.63
2022-12-04T10:19:13.742Z,45.30
2022-12-04T10:21:43.005Z,49.43
2022-12-04T10:24:21.461Z,46.67
2022-12-04T10:26:48.991Z,52.13
2022-12-04T10:29:22.730Z,50.33
2022-12-04T10:31:51.821Z,46.47
2022-12-04T10:34:29.678Z,51.43
2022-12-04T10:37:01.801Z,47.67
2022-12-04T10:39:38.941Z,46.40
2022-12-04T10:42:26.983Z,52.77
2022-12-04T10:44:54.199Z,47.80
2022-12-04T10:47:23.938Z,52.80
2022-12-04T10:49:59.648Z,57.40
2022-12-04T10:52:26.685Z,50.33
2022-12-04T10:55:01.472Z,50.80
2022-12-04T10:57:45.874Z,39.60
2022-12-04T11:00:35.229Z,57.90
2022-12-04T11:03:08.519Z,49.43
2022-12-04T11:05:52.924Z,57.20
2022-12-04T11:08:27.063Z,73.27
2022-12-04T11:11:07.673Z,98.17
2022-12-04T11:13:34.511Z,48.27
2022-12-04T11:16:01.269Z,63.10
2022-12-04T11:18:33.662Z,51.67
2022-12-04T11:21:05.417Z,68.77
2022-12-04T11:23:35.666Z,63.77
2022-12-04T11:26:06.300Z,52.40
2022-12-04T11:28:43.086Z,43.33
2022-12-04T11:31:16.312Z,41.97
2022-12-04T11:33:50.033Z,43.87
2022-12-04T11:36:33.610Z,39.50
2022-12-04T11:39:40.797Z,51.10
2022-12-04T11:42:13.236Z,53.03
2022-12-04T11:44:49.322Z,50.67
2022-12-04T11:47:18.315Z,45.77
2022-12-04T11:49:45.229Z,84.60
2022-12-04T11:52:25.463Z,54.50
2022-12-04T11:55:02.193Z,60.40
2022-12-04T11:57:43.053Z,141.70
2022-12-04T12:00:21.794Z,51.33
2022-12-04T12:03:20.598Z,86.53
2022-12-04T12:06:09.177Z,97.70
2022-12-04T12:08:50.709Z,65.63
2022-12-04T12:11:26.716Z,51.80
2022-12-04T12:13:56.219Z,144.97
2022-12-04T12:16:51.274Z,122.17
2022-12-04T12:19:42.734Z,82.90
2022-12-04T12:22:12.144Z,108.90
2022-12-04T12:25:16.276Z,158.53
2022-12-04T12:28:01.326Z,113.67
2022-12-04T12:30:37.245Z,337.27
2022-12-04T12:33:12.631Z,297.40
2022-12-04T12:35:47.940Z,158.30
2022-12-04T12:38:19.737Z,142.87
2022-12-04T12:40:55.581Z,107.13
2022-12-04T12:43:32.982Z,172.70
2022-12-04T12:46:16.849Z,394.20
2022-12-04T12:48:57.923Z,91.13
2022-12-04T12:51:33.925Z,114.77
2022-12-04T12:54:31.400Z,273.43
2022-12-04T12:57:24.631Z,110.90
2022-12-04T13:00:06.239Z,166.27
2022-12-04T13:02:54.429Z,260.33
2022-12-04T13:05:27.756Z,173.60
2022-12-04T13:08:25.337Z,350.80
2022-12-04T13:11:16.045Z,315.27
2022-12-04T13:14:03.990Z,303.40
2022-12-04T13:16:41.765Z,301.33
2022-12-04T13:19:31.132Z,125.07
2022-12-04T13:22:06.479Z,142.80
2022-12-04T13:25:11.189Z,181.00
2022-12-04T13:27:59.341Z,173.73
2022-12-04T13:31:07.360Z,295.30
2022-12-04T13:34:12.105Z,186.57
2022-12-04T13:36:48.792Z,61.90
2022-12-04T13:39:40.759Z,64.73
2022-12-04T13:42:22.005Z,172.23
2022-12-04T13:44:55.449Z,199.63
2022-12-04T13:47:32.016Z,141.23
2022-12-04T13:50:20.522Z,68.33
2022-12-04T13:52:49.368Z,279.60
2022-12-04T13:55:26.272Z,127.67
2022-12-04T13:58:00.771Z,134.17
2022-12-04T14:00:37.984Z,248.50
2022-12-04T14:03:21.073Z,123.50
2022-12-04T14:05:48.110Z,228.80
2022-12-04T14:08:20.671Z,67.57
2022-12-04T14:10:58.373Z,252.13
2022-12-04T14:13:29.674Z,107.23
2022-12-04T14:16:19.886Z,229.33
2022-12-04T14:18:56.308Z,244.00
2022-12-04T14:21:23.429Z,78.77
2022-12-04T14:23:51.296Z,386.63
2022-12-04T14:29:46.252Z,132.27
2022-12-04T14:32:25.302Z,431.37
2022-12-04T14:34:53.430Z,220.20
2022-12-04T14:37:40.149Z,230.50
2022-12-04T14:40:16.295Z,197.20
2022-12-04T14:42:42.904Z,297.20
2022-12-04T14:45:56.112Z,490.53
2022-12-04T14:48:28.470Z,336.67
2022-12-04T14:51:25.013Z,266.83
2022-12-04T14:54:00.708Z,192.70
2022-12-04T14:56:30.221Z,388.57
2022-12-04T14:58:58.105Z,294.00
2022-12-04T15:01:29.678Z,398.07
2022-12-04T15:03:59.731Z,445.10
2022-12-04T15:06:29.767Z,146.30
2022-12-04T15:09:20.682Z,430.03
2022-12-04T15:12:08.816Z,473.73
2022-12-04T15:14:44.254Z,362.57
2022-12-04T15:17:12.597Z,299.07
2022-12-04T15:19:40.086Z,659.40
2022-12-04T15:22:27.402Z,312.17
2022-12-04T15:24:55.329Z,277.17
2022-12-04T15:27:31.740Z,196.70
2022-12-04T15:30:00.338Z,515.97
2022-12-04T15:32:28.799Z,562.97
2022-12-04T15:35:02.393Z,303.07
2022-12-04T15:37:30.988Z,330.00
2022-12-04T15:39:58.606Z,173.50
2022-12-04T15:42:29.023Z,620.80
2022-12-04T15:45:02.002Z,244.00
2022-12-04T15:47:37.317Z,278.03
2022-12-04T15:50:20.337Z,132.33
2022-12-04T15:52:57.253Z,365.67
2022-12-04T15:55:25.210Z,314.03
2022-12-04T15:58:02.060Z,235.90
2022-12-04T16:00:37.856Z,709.47
2022-12-04T16:03:42.671Z,729.23
2022-12-04T16:06:27.526Z,514.33
2022-12-04T16:08:55.608Z,668.17
2022-12-04T16:11:22.116Z,469.63
2022-12-04T16:14:17.585Z,710.30
2022-12-04T16:16:50.174Z,776.17
2022-12-04T16:19:33.581Z,550.17
2022-12-04T16:22:03.045Z,756.67
2022-12-04T16:24:29.686Z,627.73
2022-12-04T16:26:58.759Z,797.60
2022-12-04T16:29:25.461Z,860.93
2022-12-04T16:31:52.097Z,1015.10
2022-12-04T16:34:18.950Z,905.03
2022-12-04T16:36:45.556Z,1238.20
2022-12-04T16:39:12.093Z,956.70
2022-12-04T16:41:40.012Z,909.60
2022-12-04T16:44:13.427Z,915.30
2022-12-04T16:46:40.384Z,895.87
2022-12-04T16:49:07.775Z,737.33
2022-12-04T16:51:37.559Z,891.90
2022-12-04T16:54:04.265Z,903.67
2022-12-04T16:56:30.802Z,765.03
2022-12-04T16:58:57.381Z,1060.40
2022-12-04T17:01:27.560Z,839.70
2022-12-04T17:03:54.297Z,658.73
2022-12-04T17:06:21.192Z,862.37
2022-12-04T17:08:47.752Z,740.77
2022-12-04T17:11:16.731Z,786.50
2022-12-04T17:13:43.529Z,970.67
2022-12-04T17:16:14.025Z,780.80
2022-12-04T17:18:41.514Z,911.67
2022-12-04T17:21:09.701Z,1002.70
2022-12-04T17:23:36.685Z,1039.57
2022-12-04T17:26:04.956Z,847.13
2022-12-04T17:28:32.121Z,843.77
2022-12-04T17:30:59.120Z,1112.20
2022-12-04T17:33:25.836Z,1022.03
2022-12-04T17:35:54.098Z,979.57
2022-12-04T17:38:20.916Z,872.03
2022-12-04T17:40:58.786Z,898.77
2022-12-04T17:43:25.588Z,804.63
2022-12-04T17:45:52.184Z,759.47
2022-12-04T17:48:18.743Z,815.53
2022-12-04T17:50:45.419Z,713.77
2022-12-04T17:53:11.933Z,581.37
2022-12-04T17:55:38.513Z,668.43
2022-12-04T17:58:05.045Z,784.70
2022-12-04T18:00:31.769Z,671.03
2022-12-04T18:02:58.452Z,633.37
2022-12-04T18:05:25.046Z,665.67
2022-12-04T18:07:51.739Z,571.60
2022-12-04T18:10:18.332Z,634.87
2022-12-04T18:12:44.846Z,826.57
2022-12-04T18:15:11.426Z,757.93
2022-12-04T18:17:39.655Z,609.67
2022-12-04T18:20:08.240Z,628.87
2022-12-04T18:22:34.920Z,497.73
2022-12-04T18:25:01.500Z,722.30
2022-12-04T18:27:28.055Z,598.07
2022-12-04T18:29:54.908Z,727.53
2022-12-04T18:32:21.634Z,1217.23
2022-12-04T18:34:48.194Z,836.90
2022-12-04T18:37:14.731Z,802.60
2022-12-04T18:39:41.328Z,856.40
2022-12-04T18:42:07.824Z,768.60
2022-12-04T18:44:34.360Z,853.80
2022-12-04T18:47:00.860Z,751.30
2022-12-04T18:49:27.449Z,659.77
2022-12-04T18:51:53.964Z,681.27
2022-12-04T18:54:23.704Z,645.17
2022-12-04T18:56:50.944Z,775.70
2022-12-04T18:59:20.080Z,485.00
2022-12-04T19:01:46.710Z,700.27
2022-12-04T19:04:16.712Z,399.97
2022-12-04T19:06:46.066Z,741.87
2022-12-04T19:09:15.690Z,713.43
2022-12-04T19:11:42.790Z,580.73
2022-12-04T19:14:20.685Z,871.83
2022-12-04T19:16:49.260Z,760.80
2022-12-04T19:19:15.964Z,603.43
2022-12-04T19:21:42.664Z,545.70
2022-12-04T19:24:10.465Z,353.40
2022-12-04T19:26:37.222Z,290.70
2022-12-04T19:29:05.205Z,405.20
2022-12-04T19:31:36.782Z,331.60
2022-12-04T19:34:04.401Z,233.43
2022-12-04T19:36:32.427Z,345.80
2022-12-04T19:39:00.293Z,447.70
2022-12-04T19:41:30.144Z,185.87
2022-12-04T19:43:59.818Z,117.90
2022-12-04T19:46:29.123Z,141.23
2022-12-04T19:48:58.679Z,88.67
2022-12-04T19:51:26.088Z,75.83
2022-12-04T19:53:53.989Z,63.47
2022-12-04T19:56:24.292Z,64.30
2022-12-04T19:58:52.379Z,47.70
2022-12-04T20:01:21.726Z,44.20
2022-12-04T20:03:48.241Z,39.10
2022-12-04T20:06:20.300Z,33.03
2022-12-04T20:08:48.124Z,35.10
2022-12-04T20:11:18.145Z,36.83
2022-12-04T20:13:46.786Z,36.67
2022-12-04T20:16:16.783Z,35.43
2022-12-04T20:18:44.541Z,38.03
2022-12-04T20:21:12.607Z,33.50
2022-12-04T20:23:46.365Z,33.20
2022-12-04T20:26:14.312Z,38.77
2022-12-04T20:28:41.539Z,39.50
2022-12-04T20:31:16.403Z,48.37
2022-12-04T20:33:43.996Z,34.80
2022-12-04T20:36:11.049Z,32.97
2022-12-04T20:38:38.044Z,28.07
2022-12-04T20:41:10.369Z,38.27
2022-12-04T20:43:37.125Z,29.30
2022-12-04T20:46:15.668Z,68.77
2022-12-04T20:48:48.184Z,63.87
2022-12-04T20:51:23.896Z,26.17
2022-12-04T20:53:51.838Z,31.57
2022-12-04T20:56:19.497Z,34.47
2022-12-04T20:58:46.294Z,24.87
2022-12-04T21:01:15.714Z,47.00
2022-12-04T21:03:43.354Z,25.70
2022-12-04T21:06:19.169Z,105.30
2022-12-04T21:08:58.613Z,30.53
2022-12-04T21:11:30.740Z,66.90
2022-12-04T21:14:17.894Z,32.17
2022-12-04T21:16:44.874Z,119.87
2022-12-04T21:19:14.345Z,135.80
2022-12-04T21:21:40.961Z,211.07
2022-12-04T21:24:10.026Z,192.83
2022-12-04T21:26:36.735Z,594.57
2022-12-04T21:29:04.843Z,461.20
2022-12-04T21:34:14.651Z,900.27
2022-12-04T21:36:41.621Z,1197.00
2022-12-04T21:39:08.919Z,610.77
2022-12-04T21:41:54.313Z,673.10
2022-12-04T21:44:21.699Z,428.73
2022-12-04T21:46:49.369Z,645.43
2022-12-04T21:49:17.736Z,668.40
2022-12-04T21:52:00.017Z,628.83
2022-12-04T21:54:27.841Z,488.97
2022-12-04T21:56:54.958Z,147.03
2022-12-04T21:59:21.607Z,416.93
2022-12-04T22:01:48.303Z,275.90
2022-12-04T22:04:15.195Z,265.10
2022-12-04T22:06:42.076Z,272.13
2022-12-04T22:09:10.912Z,243.03
2022-12-04T22:11:38.513Z,273.03
2022-12-04T22:14:05.044Z,344.03
2022-12-04T22:16:34.635Z,246.03
2022-12-04T22:19:04.264Z,339.93
2022-12-04T22:21:30.870Z,262.43
2022-12-04T22:23:59.002Z,188.63
2022-12-04T22:26:27.040Z,92.63
2022-12-04T22:28:53.700Z,391.60
2022-12-04T22:31:22.401Z,233.77
2022-12-04T22:33:50.976Z,189.40
2022-12-04T22:36:21.282Z,230.00
2022-12-04T22:39:08.297Z,79.57
2022-12-04T22:41:34.996Z,112.40
2022-12-04T22:44:01.509Z,210.10
2022-12-04T22:46:28.090Z,458.70
2022-12-04T22:48:54.703Z,399.07
2022-12-04T22:51:22.066Z,276.37
2022-12-04T22:53:54.109Z,130.60
2022-12-04T22:56:24.777Z,251.77
2022-12-04T22:58:52.127Z,57.67
2022-12-04T23:01:24.772Z,53.70
2022-12-04T23:03:52.216Z,32.83
2022-12-04T23:06:20.504Z,40.93
2022-12-04T23:08:47.337Z,32.47
2022-12-04T23:11:17.535Z,95.27
2022-12-04T23:13:49.181Z,26.17
2022-12-04T23:16:20.008Z,180.53
2022-12-04T23:18:47.291Z,43.27
2022-12-04T23:21:14.899Z,81.70
2022-12-04T23:23:44.029Z,29.00
2022-12-04T23:26:16.924Z,71.00
2022-12-04T23:28:44.016Z,160.70
2022-12-04T23:31:11.143Z,43.43
2022-12-04T23:33:38.483Z,32.47
2022-12-04T23:36:06.315Z,128.90
2022-12-04T23:38:35.463Z,35.47
2022-12-04T23:41:07.562Z,26.73
2022-12-04T23:43:35.332Z,23.10
2022-12-04T23:46:05.884Z,23.13
2022-12-04T23:48:35.658Z,29.97
2022-12-04T23:51:02.367Z,25.53
2022-12-04T23:53:28.960Z,27.33
2022-12-04T23:56:02.286Z,22.23
2022-12-04T23:58:28.876Z,22.50
